Time;durP1;ratioP1;P1;durP2;ratioP2;P2;SDS_P1;SDS_P2;PMS_P1;PMS_P2;Temp;Humidity;BMP_temperature;BMP_pressure;BME280_temperature;BME280_humidity;BME280_pressure;Samples;Min_cycle;Max_cycle;Signal;HPM_P1;HPM_P2
2022/01/01 00:02:21;;;;;;;97.80;51.03;;;;;;;;;;6191319;23;20017;-90
2022/01/01 00:04:47;;;;;;;107.55;57.35;;;;;;;;;;6192046;23;20318;-90
2022/01/01 00:07:14;;;;;;;103.97;54.08;;;;;;;;;;6216382;23;20016;-89
2022/01/01 00:09:41;;;;;;;90.35;46.42;;;;;;;;;;6217332;23;20102;-88
2022/01/01 00:12:07;;;;;;;101.93;49.65;;;;;;;;;;6218030;23;20135;-89
2022/01/01 00:14:34;;;;;;;88.18;45.58;;;;;;;;;;6217622;23;20419;-89
2022/01/01 00:17:01;;;;;;;94.30;44.63;;;;;;;;;;6190688;23;20013;-90
2022/01/01 00:19:27;;;;;;;102.70;56.38;;;;;;;;;;6191281;23;20066;-89
2022/01/01 00:21:53;;;;;;;130.63;69.30;;;;;;;;;;6191381;23;20012;-88
2022/01/01 00:24:19;;;;;;;130.82;57.63;;;;;;;;;;6190824;23;20020;-89
2022/01/01 00:26:45;;;;;;;85.93;42.63;;;;;;;;;;6191318;23;20446;-89
2022/01/01 00:29:11;;;;;;;76.55;38.17;;;;;;;;;;6191694;23;20017;-88
2022/01/01 00:31:37;;;;;;;77.57;38.63;;;;;;;;;;6192323;23;20027;-89
2022/01/01 00:34:03;;;;;;;73.00;36.38;;;;;;;;;;6192632;23;20043;-91
2022/01/01 00:36:31;;;;;;;58.47;30.40;;;;;;;;;;6190940;23;20473;-88
2022/01/01 00:38:57;;;;;;;59.70;31.92;;;;;;;;;;6190972;23;20013;-88
2022/01/01 00:41:25;;;;;;;51.20;27.38;;;;;;;;;;6192217;23;20051;-91
2022/01/01 00:43:51;;;;;;;59.97;31.40;;;;;;;;;;6191629;23;20434;-87
2022/01/01 00:46:17;;;;;;;72.68;40.50;;;;;;;;;;6192363;23;20099;-90
2022/01/01 00:48:43;;;;;;;57.67;30.10;;;;;;;;;;6216051;23;20023;-88
2022/01/01 00:51:09;;;;;;;68.15;30.52;;;;;;;;;;6217428;23;20067;-89
2022/01/01 00:53:36;;;;;;;58.33;28.73;;;;;;;;;;6190802;23;20015;-88
2022/01/01 00:56:02;;;;;;;56.35;25.95;;;;;;;;;;6193806;23;20023;-89
2022/01/01 00:58:28;;;;;;;88.90;40.35;;;;;;;;;;6196134;23;20020;-89
2022/01/01 01:00:54;;;;;;;85.07;42.25;;;;;;;;;;6221680;23;20142;-89
2022/01/01 01:03:20;;;;;;;76.13;42.40;;;;;;;;;;6221622;23;20449;-89
2022/01/01 01:05:47;;;;;;;79.43;54.17;;;;;;;;;;6196876;23;20023;-89
2022/01/01 01:08:14;;;;;;;153.52;91.22;;;;;;;;;;6195821;23;20018;-89
2022/01/01 01:10:40;;;;;;;111.50;67.80;;;;;;;;;;6196170;23;20016;-90
2022/01/01 01:13:08;;;;;;;62.15;33.72;;;;;;;;;;6195986;23;20028;-89
2022/01/01 01:15:35;;;;;;;89.72;51.22;;;;;;;;;;6196277;23;20016;-89
2022/01/01 01:18:04;;;;;;;80.07;39.90;;;;;;;;;;6196285;23;20103;-90
2022/01/01 01:20:30;;;;;;;64.20;28.85;;;;;;;;;;6197414;23;20051;-89
2022/01/01 01:22:56;;;;;;;66.60;32.78;;;;;;;;;;6198030;23;20016;-89
2022/01/01 01:25:24;;;;;;;52.22;23.77;;;;;;;;;;6198273;23;20016;-89
2022/01/01 01:27:51;;;;;;;55.53;23.63;;;;;;;;;;6222864;23;20012;-89
2022/01/01 01:30:18;;;;;;;68.85;28.92;;;;;;;;;;6196419;23;20016;-90
2022/01/01 01:32:46;;;;;;;88.53;35.38;;;;;;;;;;6221564;23;20020;-89
2022/01/01 01:35:12;;;;;;;60.90;26.38;;;;;;;;;;6196808;23;20012;-91
2022/01/01 01:37:38;;;;;;;65.03;23.00;;;;;;;;;;6222071;23;20023;-90
2022/01/01 01:40:05;;;;;;;49.53;23.23;;;;;;;;;;6221447;23;20095;-90
2022/01/01 01:42:32;;;;;;;55.75;22.98;;;;;;;;;;6196977;23;20016;-90
2022/01/01 01:45:00;;;;;;;52.08;25.15;;;;;;;;;;6196846;23;20078;-91
2022/01/01 01:47:31;;;;;;;58.20;22.65;;;;;;;;;;6222275;23;20109;-91
2022/01/01 01:49:58;;;;;;;63.17;27.63;;;;;;;;;;6197533;23;20102;-90
2022/01/01 01:52:25;;;;;;;52.20;23.13;;;;;;;;;;6198176;23;20012;-90
2022/01/01 01:54:52;;;;;;;81.72;47.38;;;;;;;;;;6197122;23;20027;-91
2022/01/01 01:57:19;;;;;;;82.75;40.78;;;;;;;;;;6196506;23;20016;-89
2022/01/01 01:59:45;;;;;;;60.10;29.10;;;;;;;;;;6196312;23;20027;-90
2022/01/01 02:02:12;;;;;;;49.20;24.60;;;;;;;;;;6196279;23;20017;-90
2022/01/01 02:04:39;;;;;;;81.88;39.03;;;;;;;;;;6197577;23;20085;-89
2022/01/01 02:07:10;;;;;;;75.40;32.38;;;;;;;;;;6223237;23;20016;-89
2022/01/01 02:09:36;;;;;;;88.93;41.58;;;;;;;;;;6197662;23;20024;-90
2022/01/01 02:12:03;;;;;;;64.78;26.23;;;;;;;;;;6196671;23;20012;-90
2022/01/01 02:14:48;;;;;;;84.70;33.25;;;;;;;;;;6197383;23;20016;-90
2022/01/01 02:17:14;;;;;;;86.80;34.75;;;;;;;;;;6196689;23;20016;-89
2022/01/01 02:19:46;;;;;;;96.68;48.88;;;;;;;;;;6196520;23;20054;-90
2022/01/01 02:22:12;;;;;;;112.32;52.35;;;;;;;;;;6197267;23;20012;-91
2022/01/01 02:24:38;;;;;;;124.65;54.38;;;;;;;;;;6196995;23;20016;-91
2022/01/01 02:27:04;;;;;;;127.95;54.40;;;;;;;;;;6196656;23;20446;-89
2022/01/01 02:29:30;;;;;;;114.60;51.40;;;;;;;;;;6220445;23;20358;-89
2022/01/01 02:31:57;;;;;;;82.60;43.00;;;;;;;;;;6221165;23;20013;-88
2022/01/01 02:34:23;;;;;;;114.75;55.17;;;;;;;;;;6220726;23;20020;-89
2022/01/01 02:36:49;;;;;;;115.50;52.05;;;;;;;;;;6221085;23;20091;-89
2022/01/01 02:39:17;;;;;;;125.43;51.60;;;;;;;;;;6197600;23;20389;-90
2022/01/01 02:41:44;;;;;;;96.05;43.75;;;;;;;;;;6221454;23;20350;-90
2022/01/01 02:44:10;;;;;;;113.50;49.97;;;;;;;;;;6196145;23;20020;-90
2022/01/01 02:46:36;;;;;;;104.05;45.58;;;;;;;;;;6196062;23;20028;-90
2022/01/01 02:49:04;;;;;;;92.88;41.72;;;;;;;;;;6195779;23;20023;-88
2022/01/01 02:51:30;;;;;;;99.75;47.40;;;;;;;;;;6196199;23;20020;-88
2022/01/01 02:53:57;;;;;;;103.35;41.38;;;;;;;;;;6196366;23;20354;-90
2022/01/01 02:56:23;;;;;;;85.95;35.33;;;;;;;;;;6220979;23;20032;-89
2022/01/01 02:58:50;;;;;;;88.97;38.15;;;;;;;;;;6195969;23;20027;-89
2022/01/01 03:01:16;;;;;;;105.22;43.97;;;;;;;;;;6222749;23;20016;-89
2022/01/01 03:03:42;;;;;;;93.07;35.80;;;;;;;;;;6221057;23;20484;-90
2022/01/01 03:06:08;;;;;;;75.43;32.60;;;;;;;;;;6196198;23;20024;-90
2022/01/01 03:08:34;;;;;;;66.32;30.05;;;;;;;;;;6195831;23;20074;-90
2022/01/01 03:11:03;;;;;;;68.72;30.02;;;;;;;;;;6197483;23;20054;-88
2022/01/01 03:13:30;;;;;;;82.43;29.35;;;;;;;;;;6196013;23;20062;-89
2022/01/01 03:15:56;;;;;;;71.57;28.60;;;;;;;;;;6197414;23;20070;-89
2022/01/01 03:18:22;;;;;;;77.80;33.00;;;;;;;;;;6196204;23;20069;-89
2022/01/01 03:20:48;;;;;;;75.43;27.73;;;;;;;;;;6195769;23;20023;-89
2022/01/01 03:23:14;;;;;;;79.43;28.55;;;;;;;;;;6196010;23;20012;-90
2022/01/01 03:25:40;;;;;;;79.68;32.58;;;;;;;;;;6195883;23;20016;-91
2022/01/01 03:28:06;;;;;;;96.97;32.92;;;;;;;;;;6220413;23;20020;-90
2022/01/01 03:30:33;;;;;;;81.57;30.83;;;;;;;;;;6221442;23;20020;-90
2022/01/01 03:32:59;;;;;;;92.32;27.77;;;;;;;;;;6196047;23;20020;-88
2022/01/01 03:35:25;;;;;;;81.53;27.33;;;;;;;;;;6195940;23;20012;-89
2022/01/01 03:37:51;;;;;;;66.80;29.02;;;;;;;;;;6195790;23;20091;-88
2022/01/01 03:40:17;;;;;;;59.08;28.65;;;;;;;;;;6220885;23;20027;-89
2022/01/01 03:42:43;;;;;;;69.05;27.63;;;;;;;;;;6220826;23;20016;-89
2022/01/01 03:45:09;;;;;;;60.63;30.50;;;;;;;;;;6196237;23;20024;-90
2022/01/01 03:47:35;;;;;;;58.38;23.95;;;;;;;;;;6195282;23;20012;-88
2022/01/01 03:50:01;;;;;;;67.43;25.67;;;;;;;;;;6220263;23;20051;-88
2022/01/01 03:52:27;;;;;;;83.53;25.63;;;;;;;;;;6195536;23;20023;-89
2022/01/01 03:54:53;;;;;;;69.32;26.23;;;;;;;;;;6195373;23;20020;-88
2022/01/01 03:57:21;;;;;;;79.05;29.00;;;;;;;;;;6220203;23;20108;-88
2022/01/01 03:59:47;;;;;;;77.05;25.52;;;;;;;;;;6220246;23;20073;-90
2022/01/01 04:02:16;;;;;;;70.82;25.65;;;;;;;;;;6220715;23;20022;-91
2022/01/01 04:04:42;;;;;;;70.00;26.25;;;;;;;;;;6220551;23;20078;-90
2022/01/01 04:07:09;;;;;;;63.20;24.25;;;;;;;;;;6195410;23;20052;-89
2022/01/01 04:09:36;;;;;;;61.25;26.65;;;;;;;;;;6195552;23;20109;-88
2022/01/01 04:12:02;;;;;;;89.43;26.23;;;;;;;;;;6196798;23;20043;-88
2022/01/01 04:14:28;;;;;;;75.72;25.30;;;;;;;;;;6195793;23;20074;-88
2022/01/01 04:16:54;;;;;;;69.18;25.85;;;;;;;;;;6221682;23;20040;-87
2022/01/01 04:19:27;;;;;;;63.97;23.20;;;;;;;;;;6197013;23;20067;-88
2022/01/01 04:21:53;;;;;;;59.00;23.23;;;;;;;;;;6221603;23;20443;-89
2022/01/01 04:24:19;;;;;;;78.78;28.02;;;;;;;;;;6220904;23;20468;-90
2022/01/01 04:26:45;;;;;;;82.13;28.17;;;;;;;;;;6220215;23;20023;-91
2022/01/01 04:29:11;;;;;;;68.78;29.35;;;;;;;;;;6247847;23;20062;-89
2022/01/01 04:31:37;;;;;;;66.20;28.60;;;;;;;;;;6220822;23;20404;-90
2022/01/01 04:34:03;;;;;;;82.75;28.98;;;;;;;;;;6195800;23;20019;-90
2022/01/01 04:36:30;;;;;;;73.18;29.13;;;;;;;;;;6195392;23;20509;-90
2022/01/01 04:38:56;;;;;;;53.83;24.15;;;;;;;;;;6221961;23;20020;-90
2022/01/01 04:41:22;;;;;;;67.65;28.27;;;;;;;;;;6221510;23;20388;-88
2022/01/01 04:43:49;;;;;;;64.60;27.73;;;;;;;;;;6195528;23;20016;-90
2022/01/01 04:46:15;;;;;;;63.92;27.15;;;;;;;;;;6221079;23;20016;-93
2022/01/01 04:48:41;;;;;;;73.03;30.40;;;;;;;;;;6248866;23;20042;-93
2022/01/01 04:51:08;;;;;;;69.90;29.40;;;;;;;;;;6196255;23;20460;-93
2022/01/01 04:53:35;;;;;;;75.43;27.27;;;;;;;;;;6220805;23;20016;-94
2022/01/01 04:56:06;;;;;;;68.93;29.35;;;;;;;;;;6222094;23;20350;-91
2022/01/01 04:58:32;;;;;;;71.90;29.42;;;;;;;;;;6196281;23;20102;-93
2022/01/01 05:00:58;;;;;;;73.47;28.33;;;;;;;;;;6196419;23;20016;-94
2022/01/01 05:03:24;;;;;;;77.50;30.05;;;;;;;;;;6197079;23;20047;-94
2022/01/01 05:05:50;;;;;;;75.78;31.88;;;;;;;;;;6196198;23;20046;-92
2022/01/01 05:08:16;;;;;;;74.57;32.67;;;;;;;;;;6249305;23;20008;-94
2022/01/01 05:10:42;;;;;;;70.53;31.25;;;;;;;;;;6222496;23;20038;-94
2022/01/01 05:13:08;;;;;;;73.57;33.40;;;;;;;;;;6222203;23;20067;-94
2022/01/01 05:15:34;;;;;;;71.00;36.42;;;;;;;;;;6197360;23;20016;-93
2022/01/01 05:18:00;;;;;;;69.35;33.63;;;;;;;;;;6197491;23;20016;-94
2022/01/01 05:20:27;;;;;;;87.45;39.25;;;;;;;;;;6196334;23;20050;-91
2022/01/01 05:22:53;;;;;;;79.40;36.60;;;;;;;;;;6221792;23;20020;-93
2022/01/01 05:25:19;;;;;;;84.18;39.38;;;;;;;;;;6220385;23;20020;-94
2022/01/01 05:27:45;;;;;;;87.68;37.28;;;;;;;;;;6197602;23;20016;-95
2022/01/01 05:30:11;;;;;;;79.88;35.80;;;;;;;;;;6220752;23;20118;-91
2022/01/01 05:32:37;;;;;;;55.95;29.80;;;;;;;;;;6222088;23;20012;-94
2022/01/01 05:35:04;;;;;;;76.90;29.40;;;;;;;;;;6196813;23;20016;-94
2022/01/01 05:37:30;;;;;;;71.60;30.52;;;;;;;;;;6248440;23;20016;-94
2022/01/01 05:39:56;;;;;;;68.00;26.75;;;;;;;;;;6220733;23;20016;-92
2022/01/01 05:42:22;;;;;;;64.85;28.55;;;;;;;;;;6221837;23;20056;-93
2022/01/01 05:44:48;;;;;;;70.70;28.17;;;;;;;;;;6195721;23;20016;-94
2022/01/01 05:47:14;;;;;;;85.78;27.67;;;;;;;;;;6196617;23;20016;-95
2022/01/01 05:49:40;;;;;;;101.00;29.75;;;;;;;;;;6196577;23;20070;-90
2022/01/01 05:52:06;;;;;;;61.10;26.65;;;;;;;;;;6221306;23;20142;-92
2022/01/01 05:54:32;;;;;;;83.18;29.17;;;;;;;;;;6196092;23;20516;-94
2022/01/01 05:56:59;;;;;;;64.20;27.40;;;;;;;;;;6196000;23;20474;-92
2022/01/01 05:59:26;;;;;;;67.13;25.00;;;;;;;;;;6196046;23;20020;-93
2022/01/01 06:01:51;;;;;;;81.72;27.35;;;;;;;;;;6221345;23;20091;-93
2022/01/01 06:04:18;;;;;;;106.88;28.02;;;;;;;;;;6220655;23;20043;-93
2022/01/01 06:06:44;;;;;;;97.85;28.83;;;;;;;;;;6198835;23;20016;-95
2022/01/01 06:09:10;;;;;;;74.57;26.90;;;;;;;;;;6196365;23;20012;-88
2022/01/01 06:11:36;;;;;;;84.13;27.38;;;;;;;;;;6197015;23;20012;-88
2022/01/01 06:14:02;;;;;;;66.15;24.02;;;;;;;;;;6196770;23;20099;-89
2022/01/01 06:16:28;;;;;;;70.65;27.10;;;;;;;;;;6221124;23;20016;-89
2022/01/01 06:18:54;;;;;;;86.75;28.35;;;;;;;;;;6196468;23;20013;-88
2022/01/01 06:21:20;;;;;;;104.72;32.35;;;;;;;;;;6196183;23;20016;-90
2022/01/01 06:23:46;;;;;;;71.88;22.52;;;;;;;;;;6196597;23;20019;-88
2022/01/01 06:26:13;;;;;;;74.32;27.75;;;;;;;;;;6221293;23;20016;-91
2022/01/01 06:28:39;;;;;;;67.28;26.27;;;;;;;;;;6221428;23;20020;-89
2022/01/01 06:31:05;;;;;;;79.85;26.23;;;;;;;;;;6221713;23;20027;-90
2022/01/01 06:33:31;;;;;;;81.00;26.10;;;;;;;;;;6221536;23;20026;-89
2022/01/01 06:35:57;;;;;;;62.60;23.25;;;;;;;;;;6196477;23;20012;-90
2022/01/01 06:38:23;;;;;;;56.65;21.08;;;;;;;;;;6196793;23;20020;-91
2022/01/01 06:40:49;;;;;;;61.47;20.83;;;;;;;;;;6221452;23;20031;-91
2022/01/01 06:43:16;;;;;;;71.85;22.95;;;;;;;;;;6221147;23;20038;-91
2022/01/01 06:45:42;;;;;;;54.75;21.90;;;;;;;;;;6197343;23;20016;-91
2022/01/01 06:48:08;;;;;;;57.65;22.52;;;;;;;;;;6222857;23;20016;-91
2022/01/01 06:50:37;;;;;;;55.85;22.13;;;;;;;;;;6196301;23;20026;-90
2022/01/01 06:53:03;;;;;;;63.90;22.00;;;;;;;;;;6197526;23;20334;-90
2022/01/01 06:55:29;;;;;;;54.72;21.45;;;;;;;;;;6221547;23;20469;-91
2022/01/01 06:57:55;;;;;;;71.22;20.27;;;;;;;;;;6196802;23;20012;-90
2022/01/01 07:00:21;;;;;;;56.30;19.92;;;;;;;;;;6196404;23;20016;-91
2022/01/01 07:02:47;;;;;;;57.90;18.75;;;;;;;;;;6196942;23;20016;-89
2022/01/01 07:05:14;;;;;;;56.30;19.58;;;;;;;;;;6221217;23;20087;-88
2022/01/01 07:07:41;;;;;;;56.63;19.58;;;;;;;;;;6221249;23;20026;-88
2022/01/01 07:10:08;;;;;;;56.83;21.80;;;;;;;;;;6195982;23;20020;-88
2022/01/01 07:12:34;;;;;;;53.10;21.00;;;;;;;;;;6196400;23;20016;-88
2022/01/01 07:15:00;;;;;;;57.67;21.52;;;;;;;;;;6221049;23;20047;-88
2022/01/01 07:17:26;;;;;;;59.63;21.15;;;;;;;;;;6222402;23;20023;-91
2022/01/01 07:19:53;;;;;;;66.28;22.85;;;;;;;;;;6221005;23;20450;-89
2022/01/01 07:22:19;;;;;;;69.45;22.60;;;;;;;;;;6220540;23;20022;-89
2022/01/01 07:24:45;;;;;;;57.78;22.05;;;;;;;;;;6195738;23;20462;-88
2022/01/01 07:27:12;;;;;;;58.25;20.67;;;;;;;;;;6220647;23;20008;-88
2022/01/01 07:29:38;;;;;;;62.80;20.27;;;;;;;;;;6222416;23;20473;-91
2022/01/01 07:32:04;;;;;;;53.45;21.20;;;;;;;;;;6197404;23;20016;-91
2022/01/01 07:34:30;;;;;;;54.95;21.38;;;;;;;;;;6222836;23;20458;-90
2022/01/01 07:36:56;;;;;;;47.28;20.33;;;;;;;;;;6222049;23;20016;-91
2022/01/01 07:39:22;;;;;;;63.60;23.55;;;;;;;;;;6222811;23;20016;-94
2022/01/01 07:41:48;;;;;;;49.42;20.63;;;;;;;;;;6196793;23;20484;-95
2022/01/01 07:44:15;;;;;;;61.08;21.65;;;;;;;;;;6221057;23;20326;-94
2022/01/01 07:46:41;;;;;;;71.57;23.83;;;;;;;;;;6196707;23;20361;-95
2022/01/01 07:49:07;;;;;;;60.13;22.83;;;;;;;;;;6221531;23;20130;-94
2022/01/01 07:51:33;;;;;;;67.80;23.13;;;;;;;;;;6196798;23;20020;-93
2022/01/01 07:53:59;;;;;;;65.72;24.92;;;;;;;;;;6221324;23;20026;-92
2022/01/01 07:56:25;;;;;;;69.57;25.10;;;;;;;;;;6221686;23;20083;-89
2022/01/01 07:58:51;;;;;;;67.10;24.42;;;;;;;;;;6195760;23;20016;-91
2022/01/01 08:01:17;;;;;;;70.65;24.75;;;;;;;;;;6195394;23;20065;-91
2022/01/01 08:03:44;;;;;;;46.33;22.45;;;;;;;;;;6195484;23;20401;-92
2022/01/01 08:06:10;;;;;;;61.05;23.33;;;;;;;;;;6221715;23;20031;-90
2022/01/01 08:08:36;;;;;;;60.45;24.27;;;;;;;;;;6196076;23;20404;-91
2022/01/01 08:11:02;;;;;;;56.97;24.73;;;;;;;;;;6220668;23;20016;-90
2022/01/01 08:13:28;;;;;;;65.32;21.42;;;;;;;;;;6197086;23;20091;-90
2022/01/01 08:15:55;;;;;;;56.88;22.70;;;;;;;;;;6196474;23;20020;-91
2022/01/01 08:18:21;;;;;;;60.47;24.38;;;;;;;;;;6196033;23;20016;-92
2022/01/01 08:20:48;;;;;;;73.78;24.88;;;;;;;;;;6220717;23;20012;-89
2022/01/01 08:23:15;;;;;;;58.30;19.98;;;;;;;;;;6194882;23;20465;-91
2022/01/01 08:25:41;;;;;;;64.57;24.65;;;;;;;;;;6220945;23;20473;-89
2022/01/01 08:28:09;;;;;;;59.90;22.70;;;;;;;;;;6220200;23;20528;-90
2022/01/01 08:30:35;;;;;;;66.35;23.58;;;;;;;;;;6195256;23;20069;-90
2022/01/01 08:33:02;;;;;;;59.80;24.40;;;;;;;;;;6220769;23;20023;-90
2022/01/01 08:35:29;;;;;;;58.17;24.95;;;;;;;;;;6195557;23;20062;-90
2022/01/01 08:37:56;;;;;;;63.15;24.63;;;;;;;;;;6221946;23;20016;-91
2022/01/01 08:40:23;;;;;;;50.90;23.95;;;;;;;;;;6221075;23;20381;-91
2022/01/01 08:42:49;;;;;;;47.10;23.50;;;;;;;;;;6221768;23;20024;-92
2022/01/01 08:45:15;;;;;;;62.95;24.05;;;;;;;;;;6220318;23;20016;-89
2022/01/01 08:47:41;;;;;;;59.20;23.60;;;;;;;;;;6222351;23;20012;-91
2022/01/01 08:50:08;;;;;;;56.55;21.98;;;;;;;;;;6220692;23;20480;-92
2022/01/01 08:52:34;;;;;;;51.63;22.15;;;;;;;;;;6221738;23;20012;-90
2022/01/01 08:55:00;;;;;;;53.17;23.88;;;;;;;;;;6194909;23;20095;-90
2022/01/01 08:57:26;;;;;;;60.53;23.77;;;;;;;;;;6221859;23;20027;-92
2022/01/01 08:59:52;;;;;;;63.47;23.80;;;;;;;;;;6195998;23;20020;-94
2022/01/01 09:02:19;;;;;;;45.28;24.27;;;;;;;;;;6221366;23;20016;-94
2022/01/01 09:04:45;;;;;;;43.00;22.58;;;;;;;;;;6196370;23;20016;-93
2022/01/01 09:07:12;;;;;;;38.83;21.33;;;;;;;;;;6196398;23;20373;-92
2022/01/01 09:09:39;;;;;;;37.55;21.35;;;;;;;;;;6196744;23;20016;-93
2022/01/01 09:12:05;;;;;;;40.28;20.25;;;;;;;;;;6197029;23;20012;-94
2022/01/01 09:14:31;;;;;;;40.97;18.65;;;;;;;;;;6196832;23;20091;-94
2022/01/01 09:16:57;;;;;;;41.72;20.58;;;;;;;;;;6248532;23;20008;-94
2022/01/01 09:19:23;;;;;;;36.25;18.20;;;;;;;;;;6221191;23;20523;-91
2022/01/01 09:21:49;;;;;;;46.65;19.90;;;;;;;;;;6196395;23;20065;-95
2022/01/01 09:24:16;;;;;;;38.08;18.75;;;;;;;;;;6220680;22;20017;-94
2022/01/01 09:26:42;;;;;;;33.95;19.00;;;;;;;;;;6221703;23;20066;-91
2022/01/01 09:29:10;;;;;;;38.85;19.60;;;;;;;;;;6196793;23;20075;-94
2022/01/01 09:31:37;;;;;;;31.88;17.58;;;;;;;;;;6221786;23;20016;-89
2022/01/01 09:34:03;;;;;;;34.25;16.30;;;;;;;;;;6221297;23;20023;-94
2022/01/01 09:36:30;;;;;;;32.30;16.88;;;;;;;;;;6221577;23;20020;-94
2022/01/01 09:38:56;;;;;;;31.98;16.60;;;;;;;;;;6197335;23;20074;-93
2022/01/01 09:41:22;;;;;;;35.75;17.65;;;;;;;;;;6198194;23;20012;-94
2022/01/01 09:43:48;;;;;;;30.95;16.55;;;;;;;;;;6250251;23;20330;-95
2022/01/01 09:46:15;;;;;;;32.33;15.38;;;;;;;;;;6222713;23;20061;-94
2022/01/01 09:48:42;;;;;;;27.55;15.00;;;;;;;;;;6223241;23;20019;-94
2022/01/01 09:51:09;;;;;;;27.17;14.93;;;;;;;;;;6249986;23;20457;-94
2022/01/01 09:53:35;;;;;;;43.25;17.15;;;;;;;;;;6223929;23;20012;-94
2022/01/01 09:56:02;;;;;;;25.88;15.00;;;;;;;;;;6197537;23;20039;-94
2022/01/01 09:58:32;;;;;;;36.22;15.73;;;;;;;;;;6222936;23;20042;-93
2022/01/01 10:00:59;;;;;;;37.60;15.52;;;;;;;;;;6197870;23;20023;-94
2022/01/01 10:03:42;;;;;;;31.98;16.00;;;;;;;;;;6223342;23;20505;-94
2022/01/01 10:06:09;;;;;;;33.33;15.07;;;;;;;;;;6198375;23;20016;-94
2022/01/01 10:08:40;;;;;;;31.73;15.25;;;;;;;;;;6198686;23;20019;-94
2022/01/01 10:11:08;;;;;;;34.58;16.23;;;11.90;99.90;;;;;;6198417;23;20020;-94
2022/01/01 10:13:37;;;;;;;32.58;14.65;;;12.00;99.90;;;;;;6198530;23;20481;-93
2022/01/01 10:16:04;;;;;;;33.90;16.23;;;;;;;;;;6198571;23;20066;-95
2022/01/01 10:18:31;;;;;;;31.98;15.07;;;;;;;;;;6223272;23;20027;-93
2022/01/01 10:21:04;;;;;;;25.33;13.43;;;;;;;;;;6199942;23;20016;-92
2022/01/01 10:23:32;;;;;;;25.58;13.48;;;;;;;;;;6222106;23;20131;-89
2022/01/01 10:29:15;;;;;;;29.00;12.80;;;;;;;;;;6221567;23;20027;-91
2022/01/01 10:31:55;;;;;;;30.98;14.18;;;;;;;;;;6221179;23;20062;-89
2022/01/01 10:34:23;;;;;;;26.73;12.90;;;;;;;;;;6222498;23;20102;-90
2022/01/01 10:36:49;;;;;;;25.52;12.77;;;;;;;;;;6220936;23;20016;-88
2022/01/01 10:39:18;;;;;;;28.02;14.32;;;;;;;;;;6221683;23;20441;-89
2022/01/01 10:41:48;;;;;;;24.05;12.82;;;;;;;;;;6196439;23;20392;-89
2022/01/01 10:44:15;;;;;;;29.92;11.30;;;;;;;;;;6221075;23;20575;-88
2022/01/01 10:46:41;;;;;;;23.40;11.88;;;;;;;;;;6196808;23;20023;-88
2022/01/01 10:49:38;;;;;;;23.20;11.23;;;12.10;99.90;;;;;;6196469;23;20067;-88
2022/01/01 10:52:13;;;;;;;24.30;11.35;;;;;;;;;;6196988;23;20422;-89
2022/01/01 10:54:50;;;;;;;20.73;11.68;;;;;;;;;;6196177;23;20438;-91
2022/01/01 10:57:22;;;;;;;23.70;10.68;;;;;;;;;;6195755;23;20016;-88
2022/01/01 10:59:49;;;;;;;30.95;11.75;;;;;;;;;;6196943;23;20385;-90
2022/01/01 11:02:15;;;;;;;22.80;10.95;;;;;;;;;;6196269;23;20012;-89
2022/01/01 11:04:42;;;;;;;26.77;10.38;;;;;;;;;;6196179;23;20016;-91
2022/01/01 11:07:11;;;;;;;23.15;11.43;;;;;;;;;;6197440;23;20039;-92
2022/01/01 11:09:37;;;;;;;25.08;12.07;;;;;;;;;;6196357;23;20017;-91
2022/01/01 11:12:04;;;;;;;18.13;9.65;;;;;;;;;;6197753;23;20048;-91
2022/01/01 11:14:32;;;;;;;21.00;11.48;;;;;;;;;;6196054;23;20154;-91
2022/01/01 11:16:58;;;;;;;18.77;9.60;;;;;;;;;;6196121;23;20020;-92
2022/01/01 11:19:25;;;;;;;22.15;10.95;;;;;;;;;;6196395;23;20063;-92
2022/01/01 11:21:54;;;;;;;23.88;10.20;;;;;;;;;;6196647;23;20040;-91
2022/01/01 11:24:22;;;;;;;27.48;10.27;;;12.10;99.90;;;;;;6196701;22;20383;-92
2022/01/01 11:26:48;;;;;;;22.38;9.70;;;;;;;;;;6196833;23;20012;-92
2022/01/01 11:29:15;;;;;;;19.40;9.40;;;;;;;;;;6196685;23;20020;-91
2022/01/01 11:31:43;;;;;;;25.77;9.75;;;;;;;;;;6197263;23;20098;-92
2022/01/01 11:34:09;;;;;;;21.15;9.52;;;;;;;;;;6196421;23;20050;-92
2022/01/01 11:36:36;;;;;;;15.82;9.02;;;;;;;;;;6197649;23;20078;-92
2022/01/01 11:39:04;;;;;;;21.10;9.57;;;;;;;;;;6195822;23;20074;-92
2022/01/01 11:41:45;;;;;;;25.45;10.13;;;;;;;;;;6197349;23;20066;-92
2022/01/01 11:44:31;;;;;;;14.13;8.75;;;;;;;;;;6195592;23;20354;-92
2022/01/01 11:47:01;;;;;;;17.67;7.40;;;;;;;;;;6221213;23;20016;-92
2022/01/01 11:49:28;;;;;;;21.58;8.95;;;;;;;;;;6195725;23;20335;-92
2022/01/01 11:51:56;;;;;;;13.43;8.10;;;12.30;99.90;;;;;;6196256;23;20043;-91
2022/01/01 11:54:26;;;;;;;25.58;8.32;;;;;;;;;;6196738;22;20012;-91
2022/01/01 11:56:53;;;;;;;15.43;7.80;;;;;;;;;;6221143;23;20019;-92
2022/01/01 11:59:19;;;;;;;14.90;7.85;;;;;;;;;;6196079;23;20020;-93
2022/01/01 12:01:45;;;;;;;17.58;7.97;;;;;;;;;;6221820;23;20520;-92
2022/01/01 12:04:33;;;;;;;17.88;7.47;;;12.40;99.90;;;;;;6195966;23;20016;-92
2022/01/01 12:07:18;;;;;;;15.15;7.43;;;12.40;99.90;;;;;;6196823;23;20372;-92
2022/01/01 12:10:11;;;;;;;16.83;8.20;;;;;;;;;;6221437;23;20020;-91
2022/01/01 12:12:38;;;;;;;16.98;8.35;;;;;;;;;;6221185;23;20354;-92
2022/01/01 12:15:25;;;;;;;16.38;7.93;;;;;;;;;;6197162;23;20020;-93
2022/01/01 12:17:53;;;;;;;15.77;6.20;;;;;;;;;;6221953;23;20016;-92
2022/01/01 12:20:21;;;;;;;12.15;6.93;;;;;;;;;;6196705;23;20024;-92
2022/01/01 12:22:48;;;;;;;14.52;7.55;;;12.40;99.90;;;;;;6196276;23;20135;-93
2022/01/01 12:25:15;;;;;;;10.18;6.10;;;12.60;99.90;;;;;;6196286;23;20016;-92
2022/01/01 12:27:51;;;;;;;10.80;7.32;;;12.30;99.90;;;;;;6221622;23;20019;-93
2022/01/01 12:30:34;;;;;;;10.60;6.30;;;;;;;;;;6221378;23;20024;-94
2022/01/01 12:33:00;;;;;;;9.50;6.18;;;;;;;;;;6221238;23;20023;-93
2022/01/01 12:35:47;;;;;;;11.57;7.35;;;12.40;99.90;;;;;;6195951;23;20027;-92
2022/01/01 12:38:15;;;;;;;11.52;6.00;;;;;;;;;;6196658;23;20016;-93
2022/01/01 12:40:55;;;;;;;12.00;7.25;;;;;;;;;;6196547;23;20020;-92
2022/01/01 12:43:23;;;;;;;15.85;6.90;;;;;;;;;;6221819;23;20020;-93
2022/01/01 12:45:53;;;;;;;12.90;6.45;;;;;;;;;;6196397;23;20024;-93
2022/01/01 12:48:29;;;;;;;15.80;7.22;;;;;;;;;;6222595;23;20016;-91
2022/01/01 12:50:57;;;;;;;14.75;6.55;;;12.40;99.90;;;;;;6196531;23;20025;-93
2022/01/01 12:53:24;;;;;;;12.63;6.47;;;12.50;99.90;;;;;;6196520;23;20064;-93
2022/01/01 12:56:00;;;;;;;12.27;7.07;;;;;;;;;;6196132;23;20020;-93
2022/01/01 12:58:30;;;;;;;16.20;5.57;;;;;;;;;;6196008;23;20018;-91
2022/01/01 13:00:56;;;;;;;12.07;7.55;;;;;;;;;;6196145;23;20021;-93
2022/01/01 13:03:25;;;;;;;11.63;6.32;;;;;;;;;;6195969;23;20012;-94
2022/01/01 13:05:51;;;;;;;12.40;6.22;;;;;;;;;;6196340;23;20013;-93
2022/01/01 13:08:17;;;;;;;14.88;5.90;;;;;;;;;;6221528;23;20070;-90
2022/01/01 13:10:43;;;;;;;12.40;5.40;;;;;;;;;;6219881;23;20408;-90
2022/01/01 13:13:09;;;;;;;12.27;5.75;;;;;;;;;;6195462;23;20354;-90
2022/01/01 13:15:37;;;;;;;12.73;5.93;;;;;;;;;;6196867;23;20020;-91
2022/01/01 13:18:03;;;;;;;13.50;5.85;;;;;;;;;;6197237;23;20016;-90
2022/01/01 13:20:29;;;;;;;11.18;5.32;;;;;;;;;;6198533;23;20032;-91
2022/01/01 13:23:03;;;;;;;10.65;5.40;;;;;;;;;;6222007;23;20421;-91
2022/01/01 13:25:29;;;;;;;10.13;5.65;;;;;;;;;;6196762;23;20102;-89
2022/01/01 13:27:55;;;;;;;11.98;6.32;;;;;;;;;;6197216;23;20445;-88
2022/01/01 13:30:24;;;;;;;11.35;5.93;;;;;;;;;;6196857;23;20020;-88
2022/01/01 13:32:51;;;;;;;12.85;6.00;;;;;;;;;;6223457;23;20094;-88
2022/01/01 13:35:25;;;;;;;13.27;5.72;;;;;;;;;;6197277;23;20016;-88
2022/01/01 13:37:51;;;;;;;9.55;5.35;;;;;;;;;;6222864;23;20433;-89
2022/01/01 13:40:18;;;;;;;10.95;6.40;;;;;;;;;;6199047;23;20016;-88
2022/01/01 13:42:45;;;;;;;8.77;5.72;;;;;;;;;;6197909;23;20047;-88
2022/01/01 13:45:11;;;;;;;14.63;5.97;;;;;;;;;;6221704;23;20019;-88
2022/01/01 13:47:37;;;;;;;11.98;6.53;;;;;;;;;;6196588;23;20104;-88
2022/01/01 13:50:19;;;;;;;11.23;6.65;;;;;;;;;;6221480;23;20457;-88
2022/01/01 13:52:53;;;;;;;15.65;6.22;;;;;;;;;;6222614;23;20214;-88
2022/01/01 13:55:24;;;;;;;;;;;12.70;99.90;;;;;;6221642;23;20017;-88
2022/01/01 13:57:51;;;;;;;11.98;5.95;;;;;;;;;;6223093;23;19939;-94
2022/01/01 14:00:18;;;;;;;9.30;5.32;;;;;;;;;;6197898;23;20047;-93
2022/01/01 14:02:44;;;;;;;13.52;6.50;;;;;;;;;;6249792;23;20448;-89
2022/01/01 14:05:10;;;;;;;10.68;6.32;;;;;;;;;;6198623;23;20081;-95
2022/01/01 14:07:36;;;;;;;14.82;6.45;;;;;;;;;;6225868;23;20020;-96
2022/01/01 14:10:14;;;;;;;10.05;6.43;;;;;;;;;;6202069;23;20027;-92
2022/01/01 14:12:50;;;;;;;16.52;6.95;;;;;;;;;;6224973;23;20016;-95
2022/01/01 14:15:20;;;;;;;12.10;7.00;;;;;;;;;;6224102;23;20012;-93
2022/01/01 14:17:50;;;;;;;12.63;6.85;;;;;;;;;;6250539;23;20020;-93
2022/01/01 14:20:23;;;;;;;13.13;7.05;;;;;;;;;;6249870;23;20053;-94